sensor_id;sensor_type;location;lat;lon;timestamp;temperature;humidity
36556;DHT22;40859;50.560;7.268;2022-12-29T16:23:54;21.10;84.70
36556;DHT22;40859;50.560;7.268;2022-12-29T16:26:22;21.20;85.40
36556;DHT22;40859;50.560;7.268;2022-12-29T16:28:51;21.20;85.30
36556;DHT22;40859;50.560;7.268;2022-12-29T16:31:25;21.30;85.20
36556;DHT22;40859;50.560;7.268;2022-12-29T16:33:56;21.30;85.10
36556;DHT22;40859;50.560;7.268;2022-12-29T16:36:34;21.30;85.10
36556;DHT22;40859;50.560;7.268;2022-12-29T16:39:19;21.30;85.10
36556;DHT22;40859;50.560;7.268;2022-12-29T16:41:49;21.30;85.10
36556;DHT22;40859;50.560;7.268;2022-12-29T16:44:33;21.30;85.10
36556;DHT22;40859;50.560;7.268;2022-12-29T16:47:02;21.40;85.10
36556;DHT22;40859;50.560;7.268;2022-12-29T16:49:32;21.40;85.30
36556;DHT22;40859;50.560;7.268;2022-12-29T16:51:58;21.40;85.20
36556;DHT22;40859;50.560;7.268;2022-12-29T16:54:35;21.40;85.10
36556;DHT22;40859;50.560;7.268;2022-12-29T16:57:02;21.40;85.20
36556;DHT22;40859;50.560;7.268;2022-12-29T16:59:35;21.40;85.20
36556;DHT22;40859;50.560;7.268;2022-12-29T17:02:07;21.40;85.20
36556;DHT22;40859;50.560;7.268;2022-12-29T17:04:33;21.40;85.20
36556;DHT22;40859;50.560;7.268;2022-12-29T17:06:59;21.40;85.20
36556;DHT22;40859;50.560;7.268;2022-12-29T17:09:27;21.50;85.40
36556;DHT22;40859;50.560;7.268;2022-12-29T17:11:56;21.50;85.40
36556;DHT22;40859;50.560;7.268;2022-12-29T17:14:43;21.50;85.40
36556;DHT22;40859;50.560;7.268;2022-12-29T17:17:24;21.50;85.50
36556;DHT22;40859;50.560;7.268;2022-12-29T17:20:00;21.50;85.60
36556;DHT22;40859;50.560;7.268;2022-12-29T17:22:29;21.50;85.50
36556;DHT22;40859;50.560;7.268;2022-12-29T17:24:57;21.50;85.50
36556;DHT22;40859;50.560;7.268;2022-12-29T17:27:37;21.50;85.40
36556;DHT22;40859;50.560;7.268;2022-12-29T17:30:26;21.50;85.40
36556;DHT22;40859;50.560;7.268;2022-12-29T17:33:05;21.50;85.30
36556;DHT22;40859;50.560;7.268;2022-12-29T17:35:34;21.50;85.30
36556;DHT22;40859;50.560;7.268;2022-12-29T17:37:59;21.50;85.10
36556;DHT22;40859;50.560;7.268;2022-12-29T17:40:31;21.50;85.10
36556;DHT22;40859;50.560;7.268;2022-12-29T17:42:58;21.50;85.10
36556;DHT22;40859;50.560;7.268;2022-12-29T17:45:29;21.50;85.00
36556;DHT22;40859;50.560;7.268;2022-12-29T17:47:57;21.50;85.00
36556;DHT22;40859;50.560;7.268;2022-12-29T17:50:27;21.50;85.00
36556;DHT22;40859;50.560;7.268;2022-12-29T17:53:03;21.50;84.90
36556;DHT22;40859;50.560;7.268;2022-12-29T17:55:30;21.50;85.00
36556;DHT22;40859;50.560;7.268;2022-12-29T17:57:56;21.50;85.20
36556;DHT22;40859;50.560;7.268;2022-12-29T18:00:28;21.50;85.30
36556;DHT22;40859;50.560;7.268;2022-12-29T18:02:58;21.50;85.30
36556;DHT22;40859;50.560;7.268;2022-12-29T18:05:27;21.40;85.10
36556;DHT22;40859;50.560;7.268;2022-12-29T18:07:55;21.50;85.20
36556;DHT22;40859;50.560;7.268;2022-12-29T18:10:22;21.50;85.20
36556;DHT22;40859;50.560;7.268;2022-12-29T18:12:50;21.50;85.10
36556;DHT22;40859;50.560;7.268;2022-12-29T18:15:25;21.50;85.10
36556;DHT22;40859;50.560;7.268;2022-12-29T18:18:09;21.50;85.00
36556;DHT22;40859;50.560;7.268;2022-12-29T18:20:35;21.50;85.00
36556;DHT22;40859;50.560;7.268;2022-12-29T18:23:01;21.50;85.00
36556;DHT22;40859;50.560;7.268;2022-12-29T18:25:49;21.50;84.90
36556;DHT22;40859;50.560;7.268;2022-12-29T18:28:16;21.50;84.90
36556;DHT22;40859;50.560;7.268;2022-12-29T18:30:42;21.50;84.80
36556;DHT22;40859;50.560;7.268;2022-12-29T18:33:15;21.50;84.80
36556;DHT22;40859;50.560;7.268;2022-12-29T18:36:04;21.50;84.80
36556;DHT22;40859;50.560;7.268;2022-12-29T18:38:30;21.60;84.80
36556;DHT22;40859;50.560;7.268;2022-12-29T18:40:57;21.60;84.80
36556;DHT22;40859;50.560;7.268;2022-12-29T18:43:23;21.60;84.70
36556;DHT22;40859;50.560;7.268;2022-12-29T18:45:49;21.60;84.70
36556;DHT22;40859;50.560;7.268;2022-12-29T18:48:16;21.60;84.70
36556;DHT22;40859;50.560;7.268;2022-12-29T18:50:43;21.60;84.70
36556;DHT22;40859;50.560;7.268;2022-12-29T18:53:17;21.60;84.70
36556;DHT22;40859;50.560;7.268;2022-12-29T18:55:47;21.60;84.70
36556;DHT22;40859;50.560;7.268;2022-12-29T18:58:13;21.60;84.60
36556;DHT22;40859;50.560;7.268;2022-12-29T19:00:39;21.60;84.60
36556;DHT22;40859;50.560;7.268;2022-12-29T19:03:05;21.60;84.60
36556;DHT22;40859;50.560;7.268;2022-12-29T19:05:36;21.60;84.60
36556;DHT22;40859;50.560;7.268;2022-12-29T19:08:02;21.60;84.60
36556;DHT22;40859;50.560;7.268;2022-12-29T19:10:29;21.60;84.60
36556;DHT22;40859;50.560;7.268;2022-12-29T19:12:55;21.60;84.60
36556;DHT22;40859;50.560;7.268;2022-12-29T19:15:34;21.60;84.70
36556;DHT22;40859;50.560;7.268;2022-12-29T19:18:02;21.60;84.50
36556;DHT22;40859;50.560;7.268;2022-12-29T19:20:37;21.60;84.50
36556;DHT22;40859;50.560;7.268;2022-12-29T19:23:09;21.60;84.50
36556;DHT22;40859;50.560;7.268;2022-12-29T19:25:35;21.60;84.50
36556;DHT22;40859;50.560;7.268;2022-12-29T19:28:02;21.60;84.50
36556;DHT22;40859;50.560;7.268;2022-12-29T19:30:28;21.60;84.40
36556;DHT22;40859;50.560;7.268;2022-12-29T19:32:55;21.60;84.40
36556;DHT22;40859;50.560;7.268;2022-12-29T19:35:27;21.60;84.40
36556;DHT22;40859;50.560;7.268;2022-12-29T19:37:54;21.60;84.30
36556;DHT22;40859;50.560;7.268;2022-12-29T19:40:22;21.60;84.30
36556;DHT22;40859;50.560;7.268;2022-12-29T19:42:49;21.60;84.20
36556;DHT22;40859;50.560;7.268;2022-12-29T19:45:15;21.60;84.20
36556;DHT22;40859;50.560;7.268;2022-12-29T19:47:42;21.60;84.10
36556;DHT22;40859;50.560;7.268;2022-12-29T19:50:09;21.60;84.10
36556;DHT22;40859;50.560;7.268;2022-12-29T19:52:36;21.60;84.00
36556;DHT22;40859;50.560;7.268;2022-12-29T19:55:03;21.60;84.10
36556;DHT22;40859;50.560;7.268;2022-12-29T19:57:29;21.60;84.00
36556;DHT22;40859;50.560;7.268;2022-12-29T19:59:55;21.60;84.00
36556;DHT22;40859;50.560;7.268;2022-12-29T20:02:24;21.60;84.00
36556;DHT22;40859;50.560;7.268;2022-12-29T20:04:51;21.60;83.90
36556;DHT22;40859;50.560;7.268;2022-12-29T20:07:18;21.60;83.90
36556;DHT22;40859;50.560;7.268;2022-12-29T20:09:44;21.60;83.80
36556;DHT22;40859;50.560;7.268;2022-12-29T20:12:11;21.60;83.80
36556;DHT22;40859;50.560;7.268;2022-12-29T20:14:38;21.60;83.70
36556;DHT22;40859;50.560;7.268;2022-12-29T20:17:06;21.60;83.60
36556;DHT22;40859;50.560;7.268;2022-12-29T20:19:33;21.60;83.60
36556;DHT22;40859;50.560;7.268;2022-12-29T20:22:01;21.60;83.60
36556;DHT22;40859;50.560;7.268;2022-12-29T20:24:28;21.60;83.60
36556;DHT22;40859;50.560;7.268;2022-12-29T20:26:54;21.60;83.60
36556;DHT22;40859;50.560;7.268;2022-12-29T20:29:20;21.60;83.60
36556;DHT22;40859;50.560;7.268;2022-12-29T20:31:47;21.60;83.60
36556;DHT22;40859;50.560;7.268;2022-12-29T20:34:14;21.60;83.60
36556;DHT22;40859;50.560;7.268;2022-12-29T20:36:43;21.60;83.70
36556;DHT22;40859;50.560;7.268;2022-12-29T20:39:13;21.60;83.60
36556;DHT22;40859;50.560;7.268;2022-12-29T20:41:39;21.60;83.60
36556;DHT22;40859;50.560;7.268;2022-12-29T20:44:05;21.60;83.60
36556;DHT22;40859;50.560;7.268;2022-12-29T20:46:32;21.60;83.60
36556;DHT22;40859;50.560;7.268;2022-12-29T20:48:58;21.60;83.60
36556;DHT22;40859;50.560;7.268;2022-12-29T20:51:24;21.60;83.60
36556;DHT22;40859;50.560;7.268;2022-12-29T20:53:50;21.60;83.70
36556;DHT22;40859;50.560;7.268;2022-12-29T20:56:19;21.60;83.60
36556;DHT22;40859;50.560;7.268;2022-12-29T20:58:46;21.60;83.70
36556;DHT22;40859;50.560;7.268;2022-12-29T21:01:16;21.60;83.70
36556;DHT22;40859;50.560;7.268;2022-12-29T21:03:42;21.60;83.70
36556;DHT22;40859;50.560;7.268;2022-12-29T21:06:09;21.60;83.70
36556;DHT22;40859;50.560;7.268;2022-12-29T21:08:36;21.60;83.70
36556;DHT22;40859;50.560;7.268;2022-12-29T21:11:02;21.60;83.70
36556;DHT22;40859;50.560;7.268;2022-12-29T21:13:30;21.60;83.70
36556;DHT22;40859;50.560;7.268;2022-12-29T21:16:01;21.60;83.80
36556;DHT22;40859;50.560;7.268;2022-12-29T21:18:27;21.60;83.80
36556;DHT22;40859;50.560;7.268;2022-12-29T21:21:00;21.60;83.80
36556;DHT22;40859;50.560;7.268;2022-12-29T21:23:27;21.60;83.80
36556;DHT22;40859;50.560;7.268;2022-12-29T21:25:53;21.60;83.80
36556;DHT22;40859;50.560;7.268;2022-12-29T21:28:20;21.60;83.80
36556;DHT22;40859;50.560;7.268;2022-12-29T21:30:47;21.60;83.80
36556;DHT22;40859;50.560;7.268;2022-12-29T21:33:18;21.60;83.80
36556;DHT22;40859;50.560;7.268;2022-12-29T21:35:44;21.60;83.80
36556;DHT22;40859;50.560;7.268;2022-12-29T21:38:11;21.60;83.80
36556;DHT22;40859;50.560;7.268;2022-12-29T21:40:38;21.60;83.90
36556;DHT22;40859;50.560;7.268;2022-12-29T21:43:05;21.60;83.80
36556;DHT22;40859;50.560;7.268;2022-12-29T21:45:31;21.60;83.80
36556;DHT22;40859;50.560;7.268;2022-12-29T21:48:04;21.70;83.80
36556;DHT22;40859;50.560;7.268;2022-12-29T21:50:54;21.60;83.80
36556;DHT22;40859;50.560;7.268;2022-12-29T21:53:43;21.60;83.70
36556;DHT22;40859;50.560;7.268;2022-12-29T21:56:16;21.60;83.70
36556;DHT22;40859;50.560;7.268;2022-12-29T21:58:45;21.60;83.80
36556;DHT22;40859;50.560;7.268;2022-12-29T22:01:32;21.60;83.70
36556;DHT22;40859;50.560;7.268;2022-12-29T22:04:18;21.60;83.80
36556;DHT22;40859;50.560;7.268;2022-12-29T22:07:04;21.60;83.70
36556;DHT22;40859;50.560;7.268;2022-12-29T22:09:49;21.60;83.70
36556;DHT22;40859;50.560;7.268;2022-12-29T22:12:33;21.60;83.70
36556;DHT22;40859;50.560;7.268;2022-12-29T22:15:18;21.60;83.60
36556;DHT22;40859;50.560;7.268;2022-12-29T22:17:49;21.60;83.50
36556;DHT22;40859;50.560;7.268;2022-12-29T22:20:16;21.60;83.60
36556;DHT22;40859;50.560;7.268;2022-12-29T22:22:42;21.60;83.50
36556;DHT22;40859;50.560;7.268;2022-12-29T22:25:08;21.60;83.60
36556;DHT22;40859;50.560;7.268;2022-12-29T22:27:35;21.60;83.50
36556;DHT22;40859;50.560;7.268;2022-12-29T22:30:01;21.60;83.40
36556;DHT22;40859;50.560;7.268;2022-12-29T22:32:27;21.60;83.30
36556;DHT22;40859;50.560;7.268;2022-12-29T22:34:53;21.60;83.30
36556;DHT22;40859;50.560;7.268;2022-12-29T22:37:19;21.60;83.30
36556;DHT22;40859;50.560;7.268;2022-12-29T22:39:46;21.60;83.20
36556;DHT22;40859;50.560;7.268;2022-12-29T22:42:12;21.60;83.10
36556;DHT22;40859;50.560;7.268;2022-12-29T22:44:38;21.60;82.80
36556;DHT22;40859;50.560;7.268;2022-12-29T22:47:04;21.60;83.10
36556;DHT22;40859;50.560;7.268;2022-12-29T22:49:30;21.60;83.10
36556;DHT22;40859;50.560;7.268;2022-12-29T22:51:56;21.60;83.00
36556;DHT22;40859;50.560;7.268;2022-12-29T22:54:22;21.60;83.00
36556;DHT22;40859;50.560;7.268;2022-12-29T22:56:48;21.60;83.00
36556;DHT22;40859;50.560;7.268;2022-12-29T22:59:14;21.60;83.80
36556;DHT22;40859;50.560;7.268;2022-12-29T23:01:40;21.60;83.00
36556;DHT22;40859;50.560;7.268;2022-12-29T23:04:06;21.60;82.90
36556;DHT22;40859;50.560;7.268;2022-12-29T23:06:33;21.60;82.90
